This is the latest recevied weather packets stored in our database for station/object HK3BJ-16. If no packets are shown the sender has not sent any weather packets the latest 10 day(s).
| Time | Temp. | Humidity | Pressure | Rain* | Wind** | Luminosity | Snow |
|---|---|---|---|---|---|---|---|
| 1787859031 | 35° C | 34% | 1005 hPa | 0 mm | - | - | - |
| 1787858085 | 35° C | 34% | 1005 hPa | 0 mm | - | - | - |
| 1787856087 | 32.78° C | 40% | 1005 hPa | 0 mm | - | - | - |
| 1787855106 | 32.78° C | 40% | 1006 hPa | 0 mm | - | - | - |
| 1787853135 | 31.11° C | 48% | 1006 hPa | 0 mm | - | - | - |
| 1787852176 | 33.33° C | 42% | 1007 hPa | 0 mm | - | - | - |
| 1787851229 | 33.33° C | 42% | 1009 hPa | 0 mm | - | - | - |
| 1787849321 | 33.33° C | 42% | 1008 hPa | 0 mm | - | - | - |
| 1787848359 | 32.78° C | 56% | 1009 hPa | 0 mm | - | - | - |
| 1787847410 | 32.78° C | 56% | 1011 hPa | 0 mm | - | - | - |
| 1787846466 | 28.89° C | 58% | 1011 hPa | 0 mm | - | - | - |
| 1787845501 | 28.89° C | 58% | 1011 hPa | 0 mm | - | - | - |
| 1787844532 | 28.89° C | 58% | 1012 hPa | 0 mm | - | - | - |
| 1787843575 | 28.89° C | 58% | 1011 hPa | 0 mm | - | - | - |
| 1787842631 | 26.11° C | 73% | 1011 hPa | 0 mm | - | - | - |
| 1787841678 | 26.11° C | 73% | 1011 hPa | 0 mm | - | - | - |
| 1787840725 | 26.11° C | 73% | 1012 hPa | 0 mm | - | - | - |
| 1787839780 | 26.11° C | 73% | 1012 hPa | 0 mm | - | - | - |
| 1787838833 | 22.78° C | 94% | 1012 hPa | 0 mm | - | - | - |
| 1787837889 | 22.78° C | 94% | 1012 hPa | 0 mm | - | - | - |
| 1787836940 | 22.78° C | 94% | 1012 hPa | 0 mm | - | - | - |
| 1787835992 | 22.78° C | 94% | 1012 hPa | 0 mm | - | - | - |
| 1787835041 | 22.78° C | 94% | 1012 hPa | 0 mm | - | - | - |
| 1787834096 | 23.89° C | 78% | 1012 hPa | 0 mm | - | - | - |
| 1787833139 | 23.89° C | 78% | 1011 hPa | 0 mm | - | - | - |
* Rain latest hour (hover to see other rain measurements)
** Current wind speed in m/s (hover to see current wind gust speed)